Time;durP1;ratioP1;P1;durP2;ratioP2;P2;SDS_P1;SDS_P2;PMS_P1;PMS_P2;Temp;Humidity;BMP_temperature;BMP_pressure;BME280_temperature;BME280_humidity;BME280_pressure;Samples;Min_cycle;Max_cycle;Signal;HPM_P1;HPM_P2
2023/05/28 00:01:25;;;;;;;8.17;4.70;;;19.00;57.90;;;;;;5030483;28;20214;-72
2023/05/28 00:03:52;;;;;;;9.27;4.97;;;18.90;58.40;;;;;;5030775;28;20202;-71
2023/05/28 00:06:19;;;;;;;6.03;4.53;;;18.90;58.00;;;;;;5030589;28;20212;-72
2023/05/28 00:08:46;;;;;;;7.23;4.20;;;18.80;58.00;;;;;;5030730;28;20244;-72
2023/05/28 00:11:14;;;;;;;7.30;4.80;;;18.80;58.10;;;;;;5030269;28;20202;-72
2023/05/28 00:13:41;;;;;;;7.73;4.93;;;18.80;58.40;;;;;;5029913;28;20484;-71
2023/05/28 00:16:08;;;;;;;7.70;4.60;;;18.80;58.40;;;;;;5030432;28;20808;-71
2023/05/28 00:18:35;;;;;;;9.07;4.73;;;18.70;58.40;;;;;;5030520;28;20604;-72
2023/05/28 00:21:02;;;;;;;6.83;5.10;;;18.70;58.40;;;;;;5030215;28;20821;-72
2023/05/28 00:23:28;;;;;;;6.23;4.73;;;18.70;58.10;;;;;;5030336;28;20844;-72
2023/05/28 00:25:55;;;;;;;9.20;5.10;;;18.70;58.00;;;;;;5046149;28;20221;-70
2023/05/28 00:28:23;;;;;;;6.77;4.50;;;18.70;57.90;;;;;;5050101;28;20567;-72
2023/05/28 00:30:50;;;;;;;6.43;4.20;;;18.70;57.90;;;;;;5050061;28;20802;-72
2023/05/28 00:33:17;;;;;;;8.83;4.27;;;18.70;57.80;;;;;;5050078;28;20239;-72
2023/05/28 00:35:44;;;;;;;7.37;4.63;;;18.60;57.80;;;;;;5049895;28;20208;-72
2023/05/28 00:38:11;;;;;;;7.57;4.27;;;18.60;57.80;;;;;;5050290;28;20458;-71
2023/05/28 00:40:44;;;;;;;6.13;3.90;;;18.60;58.10;;;;;;5049922;28;20226;-71
2023/05/28 00:43:11;;;;;;;7.83;4.20;;;18.60;58.30;;;;;;5049951;28;20215;-72
2023/05/28 00:45:39;;;;;;;8.00;4.50;;;18.50;58.00;;;;;;5049925;28;20577;-72
2023/05/28 00:48:06;;;;;;;6.30;3.70;;;18.50;57.80;;;;;;5050085;28;20527;-72
2023/05/28 00:50:33;;;;;;;5.40;3.97;;;18.50;57.70;;;;;;5049935;28;20444;-72
2023/05/28 00:53:01;;;;;;;6.30;3.60;;;18.40;57.50;;;;;;5049667;28;20221;-72
2023/05/28 00:55:28;;;;;;;6.30;4.30;;;18.40;57.40;;;;;;5049650;28;20237;-71
2023/05/28 00:58:03;;;;;;;7.63;4.03;;;18.40;57.00;;;;;;5050102;28;20458;-71
2023/05/28 01:00:30;;;;;;;7.03;3.97;;;18.30;57.10;;;;;;5049796;28;21182;-72
2023/05/28 01:02:59;;;;;;;5.60;3.97;;;18.30;57.10;;;;;;5049740;28;20443;-72
2023/05/28 01:05:26;;;;;;;5.90;3.83;;;18.30;57.00;;;;;;5049592;28;20459;-72
2023/05/28 01:07:53;;;;;;;5.23;3.83;;;18.30;57.10;;;;;;5049728;28;20456;-72
2023/05/28 01:10:20;;;;;;;6.43;3.83;;;18.30;57.10;;;;;;5049930;28;20212;-71
2023/05/28 01:12:48;;;;;;;5.70;3.83;;;18.20;57.80;;;;;;5049716;28;20448;-71
2023/05/28 01:15:14;;;;;;;5.97;3.93;;;18.20;57.30;;;;;;5049469;28;20212;-72
2023/05/28 01:17:41;;;;;;;5.47;3.90;;;18.20;57.10;;;;;;5049698;28;20456;-72
2023/05/28 01:20:13;;;;;;;6.90;4.70;;;18.20;57.30;;;;;;5049685;28;20455;-72
2023/05/28 01:22:47;;;;;;;8.63;4.40;;;18.20;57.40;;;;;;5049412;28;20535;-72
2023/05/28 01:25:16;;;;;;;5.60;4.30;;;18.10;57.40;;;;;;5050370;28;20793;-72
2023/05/28 01:27:43;;;;;;;8.50;4.60;;;18.10;57.50;;;;;;5053587;28;20444;-71
2023/05/28 01:30:12;;;;;;;6.93;3.77;;;18.10;57.50;;;;;;5053435;28;20551;-72
2023/05/28 01:32:39;;;;;;;6.30;4.03;;;18.00;57.50;;;;;;5054160;28;20463;-71
2023/05/28 01:35:08;;;;;;;5.60;3.60;;;18.00;57.50;;;;;;5044440;28;21056;-72
2023/05/28 01:37:40;;;;;;;7.10;4.40;;;18.00;57.50;;;;;;5034488;28;20238;-71
2023/05/28 01:40:09;;;;;;;6.37;4.07;;;18.00;57.60;;;;;;5034265;28;20475;-71
2023/05/28 01:42:39;;;;;;;5.90;3.93;;;18.00;57.60;;;;;;5034106;28;20479;-71
2023/05/28 01:45:08;;;;;;;7.77;4.20;;;18.00;57.60;;;;;;5033880;28;20453;-71
2023/05/28 01:47:36;;;;;;;5.87;4.13;;;17.90;57.70;;;;;;5034204;28;20796;-71
2023/05/28 01:50:04;;;;;;;6.53;3.90;;;17.90;57.90;;;;;;5034118;28;20469;-72
2023/05/28 01:52:30;;;;;;;5.80;3.97;;;17.90;58.40;;;;;;5034114;28;20449;-72
2023/05/28 01:54:57;;;;;;;6.30;4.40;;;17.90;58.40;;;;;;5033766;28;20488;-72
2023/05/28 01:57:24;;;;;;;5.70;4.03;;;17.80;58.30;;;;;;5034196;28;20802;-71
2023/05/28 01:59:52;;;;;;;5.03;3.73;;;17.80;58.40;;;;;;4998786;28;20442;-71
2023/05/28 02:02:22;;;;;;;5.60;4.30;;;17.80;58.40;;;;;;5033811;28;20481;-71
2023/05/28 02:04:49;;;;;;;7.23;3.70;;;17.70;58.40;;;;;;5034202;28;20506;-71
2023/05/28 02:07:16;;;;;;;6.53;3.73;;;17.70;58.60;;;;;;5033851;28;20956;-71
2023/05/28 02:09:44;;;;;;;6.13;4.07;;;17.70;58.40;;;;;;5033777;28;20515;-71
2023/05/28 02:12:11;;;;;;;4.83;4.00;;;17.60;58.40;;;;;;5033695;28;20460;-71
2023/05/28 02:14:38;;;;;;;7.53;4.90;;;17.60;58.70;;;;;;5033230;28;20487;-72
2023/05/28 02:17:07;;;;;;;6.47;4.50;;;17.50;58.60;;;;;;5033496;28;20445;-73
2023/05/28 02:19:34;;;;;;;8.80;4.13;;;17.50;58.80;;;;;;5033966;28;20500;-72
2023/05/28 02:22:01;;;;;;;4.90;3.60;;;17.40;58.80;;;;;;5033512;28;20476;-72
2023/05/28 02:24:27;;;;;;;5.13;4.03;;;17.40;58.90;;;;;;5033352;28;20441;-72
2023/05/28 02:26:55;;;;;;;5.17;4.00;;;17.30;59.00;;;;;;5033457;28;20449;-72
2023/05/28 02:29:22;;;;;;;5.23;3.80;;;17.30;59.10;;;;;;5033285;28;20457;-73
2023/05/28 02:31:50;;;;;;;6.97;4.30;;;17.30;59.40;;;;;;5033325;28;21080;-72
2023/05/28 02:34:18;;;;;;;6.40;3.93;;;17.20;59.40;;;;;;5035524;28;20526;-72
2023/05/28 02:36:45;;;;;;;6.10;4.30;;;17.20;59.40;;;;;;5040376;28;20456;-72
2023/05/28 02:39:12;;;;;;;7.63;4.13;;;17.20;59.30;;;;;;5032976;28;20473;-72
2023/05/28 02:41:39;;;;;;;6.57;4.13;;;17.20;59.30;;;;;;5032955;28;20495;-72
2023/05/28 02:44:06;;;;;;;6.67;3.90;;;17.20;59.40;;;;;;5032924;28;20451;-72
2023/05/28 02:46:32;;;;;;;5.57;4.70;;;17.10;59.30;;;;;;5032575;28;20955;-72
2023/05/28 02:48:59;;;;;;;6.70;4.20;;;17.10;59.30;;;;;;5033281;28;20453;-72
2023/05/28 02:51:27;;;;;;;7.00;4.47;;;17.10;59.30;;;;;;5033239;28;20460;-72
2023/05/28 02:53:54;;;;;;;6.03;3.80;;;17.10;59.30;;;;;;5032727;28;20512;-72
2023/05/28 02:56:22;;;;;;;5.13;3.80;;;17.10;59.60;;;;;;5032685;28;20453;-70
2023/05/28 02:58:48;;;;;;;4.53;3.87;;;17.10;59.60;;;;;;5033090;28;20444;-72
2023/05/28 03:01:15;;;;;;;6.57;4.47;;;17.10;59.80;;;;;;5032653;28;20956;-72
2023/05/28 03:03:42;;;;;;;7.27;4.67;;;17.10;59.90;;;;;;5032742;28;20449;-72
2023/05/28 03:06:09;;;;;;;7.23;4.10;;;17.00;59.90;;;;;;5032522;28;20916;-72
2023/05/28 03:08:37;;;;;;;6.73;4.07;;;17.00;59.80;;;;;;5032692;28;20465;-72
2023/05/28 03:11:04;;;;;;;6.47;4.27;;;16.90;59.70;;;;;;5032550;28;20453;-72
2023/05/28 03:13:31;;;;;;;4.83;3.90;;;16.90;59.80;;;;;;5032561;28;20483;-72
2023/05/28 03:15:58;;;;;;;6.40;3.80;;;16.90;59.80;;;;;;5032492;28;20460;-72
2023/05/28 03:18:25;;;;;;;5.43;4.43;;;16.90;60.00;;;;;;5032448;28;20445;-72
2023/05/28 03:20:53;;;;;;;6.10;4.10;;;16.90;60.00;;;;;;5032482;28;20445;-72
2023/05/28 03:23:20;;;;;;;5.97;3.80;;;16.90;60.10;;;;;;5032627;28;20449;-72
2023/05/28 03:25:48;;;;;;;4.97;3.83;;;16.90;60.50;;;;;;5031935;28;20472;-72
2023/05/28 03:28:15;;;;;;;6.47;3.93;;;16.80;60.20;;;;;;5032143;28;20445;-72
2023/05/28 03:30:42;;;;;;;5.13;3.97;;;16.80;60.40;;;;;;5032099;28;20461;-72
2023/05/28 03:33:09;;;;;;;7.23;4.20;;;16.80;60.50;;;;;;5032400;28;20449;-71
2023/05/28 03:35:36;;;;;;;6.90;4.47;;;16.80;61.40;;;;;;5032214;28;20497;-72
2023/05/28 03:38:03;;;;;;;6.27;4.03;;;16.80;60.50;;;;;;5032417;28;20495;-72
2023/05/28 03:40:30;;;;;;;8.10;4.20;;;16.80;60.30;;;;;;5032648;28;20472;-72
2023/05/28 03:42:59;;;;;;;6.20;4.07;;;16.70;60.10;;;;;;5032539;28;20460;-72
2023/05/28 03:45:25;;;;;;;7.97;3.80;;;16.70;60.10;;;;;;5034084;28;20564;-72
2023/05/28 03:47:52;;;;;;;7.63;4.30;;;16.70;60.10;;;;;;5052438;28;20501;-72
2023/05/28 03:50:20;;;;;;;5.63;3.50;;;16.80;60.40;;;;;;5056692;28;20478;-72
2023/05/28 03:52:46;;;;;;;6.67;3.77;;;16.70;60.20;;;;;;5058368;28;20471;-71
2023/05/28 03:55:13;;;;;;;8.50;3.93;;;16.70;60.10;;;;;;5047204;28;20552;-72
2023/05/28 03:57:40;;;;;;;4.80;3.97;;;16.70;60.20;;;;;;5055929;28;20448;-72
2023/05/28 04:00:11;;;;;;;6.03;4.27;;;16.70;60.30;;;;;;5051184;28;20477;-72
2023/05/28 04:02:37;;;;;;;6.90;4.00;;;16.70;60.80;;;;;;5030435;28;20449;-72
2023/05/28 04:05:05;;;;;;;4.50;3.93;;;16.60;61.00;;;;;;5031446;28;20453;-71
2023/05/28 04:07:32;;;;;;;8.53;4.33;;;16.60;61.30;;;;;;5031731;28;20497;-71
2023/05/28 04:09:58;;;;;;;5.80;3.80;;;16.60;61.30;;;;;;5031985;28;20465;-71
2023/05/28 04:12:25;;;;;;;7.53;4.20;;;16.60;61.30;;;;;;5032982;28;20451;-71
2023/05/28 04:14:52;;;;;;;6.07;3.87;;;16.60;61.30;;;;;;5031128;28;20568;-72
2023/05/28 04:17:20;;;;;;;6.63;4.07;;;16.60;61.40;;;;;;5033164;28;20567;-71
2023/05/28 04:19:47;;;;;;;6.97;3.97;;;16.60;61.60;;;;;;5031669;28;20789;-72
2023/05/28 04:22:14;;;;;;;4.80;4.20;;;16.60;61.40;;;;;;5031427;28;20451;-72
2023/05/28 04:24:41;;;;;;;11.57;4.90;;;16.70;61.60;;;;;;5031185;28;20949;-72
2023/05/28 04:27:09;;;;;;;10.60;4.77;;;16.70;62.30;;;;;;5031674;28;20449;-72
2023/05/28 04:29:36;;;;;;;10.37;4.97;;;16.70;62.70;;;;;;5030881;28;20558;-72
2023/05/28 04:32:04;;;;;;;7.43;4.23;;;16.70;63.00;;;;;;5031298;28;20492;-73
2023/05/28 04:34:33;;;;;;;8.30;4.33;;;16.70;63.10;;;;;;5035630;28;20480;-71
2023/05/28 04:37:00;;;;;;;7.27;3.70;;;16.70;63.70;;;;;;5051016;28;20452;-72
2023/05/28 04:39:27;;;;;;;5.90;3.90;;;16.70;63.90;;;;;;5050879;28;20448;-71
2023/05/28 04:41:54;;;;;;;5.97;3.87;;;16.70;64.20;;;;;;5050919;28;20481;-72
2023/05/28 04:44:25;;;;;;;10.63;5.00;;;16.70;64.40;;;;;;5050996;28;20502;-72
2023/05/28 04:46:52;;;;;;;9.60;5.00;;;16.80;64.70;;;;;;5050638;28;20437;-71
2023/05/28 04:49:19;;;;;;;9.50;5.00;;;16.80;64.90;;;;;;5050709;28;20472;-71
2023/05/28 04:51:47;;;;;;;12.20;4.83;;;16.80;64.80;;;;;;5047638;28;20540;-71
2023/05/28 04:54:14;;;;;;;16.10;5.83;;;16.80;65.00;;;;;;5031061;28;20492;-72
2023/05/28 04:56:41;;;;;;;10.67;4.70;;;16.90;65.60;;;;;;5029739;28;20449;-72
2023/05/28 04:59:09;;;;;;;6.57;4.57;;;16.90;65.40;;;;;;5030576;28;20452;-72
2023/05/28 05:01:36;;;;;;;9.30;4.60;;;16.90;65.50;;;;;;5034238;28;20816;-72
2023/05/28 05:04:03;;;;;;;6.43;4.93;;;16.90;65.70;;;;;;5034913;28;20981;-72
2023/05/28 05:06:30;;;;;;;8.50;4.10;;;16.90;65.90;;;;;;5034745;28;20452;-72
2023/05/28 05:08:58;;;;;;;7.23;4.07;;;17.00;66.00;;;;;;5034744;28;20482;-72
2023/05/28 05:11:26;;;;;;;5.43;3.87;;;17.00;65.50;;;;;;5034795;28;20459;-72
2023/05/28 05:13:52;;;;;;;7.50;3.87;;;17.10;65.70;;;;;;5034705;28;20456;-71
2023/05/28 05:16:21;;;;;;;6.33;3.90;;;17.10;65.20;;;;;;5034779;28;20445;-71
2023/05/28 05:18:48;;;;;;;4.43;4.00;;;17.20;65.40;;;;;;5034703;28;20449;-72
2023/05/28 05:21:15;;;;;;;6.53;4.40;;;17.30;65.60;;;;;;5034804;28;20477;-73
2023/05/28 05:23:42;;;;;;;5.67;4.07;;;17.30;65.20;;;;;;5034543;28;20445;-72
2023/05/28 05:26:12;;;;;;;5.37;4.07;;;17.40;65.10;;;;;;5034257;28;21119;-71
2023/05/28 05:28:39;;;;;;;6.27;4.17;;;17.50;65.30;;;;;;5034636;28;20544;-72
2023/05/28 05:31:06;;;;;;;5.77;4.40;;;17.60;65.20;;;;;;5034656;28;20445;-71
2023/05/28 05:33:33;;;;;;;6.53;4.10;;;17.60;65.20;;;;;;5034487;28;20507;-71
2023/05/28 05:36:00;;;;;;;6.50;3.73;;;17.70;65.60;;;;;;5050837;28;21018;-71
2023/05/28 05:38:27;;;;;;;5.67;4.03;;;17.80;65.40;;;;;;5054071;28;20551;-72
2023/05/28 05:40:54;;;;;;;5.93;4.50;;;17.90;65.90;;;;;;5054037;28;20477;-72
2023/05/28 05:43:22;;;;;;;6.57;3.90;;;17.90;65.80;;;;;;5054325;28;20452;-71
2023/05/28 05:45:49;;;;;;;6.50;3.97;;;18.00;65.90;;;;;;5054405;28;20493;-71
2023/05/28 05:48:16;;;;;;;5.20;3.80;;;18.10;66.30;;;;;;5054065;28;20456;-72
2023/05/28 05:50:50;;;;;;;5.40;4.00;;;18.20;65.90;;;;;;5054087;28;20518;-72
2023/05/28 05:53:17;;;;;;;4.70;3.73;;;18.20;65.50;;;;;;5053541;28;20480;-72
2023/05/28 05:55:44;;;;;;;7.40;3.50;;;18.30;64.80;;;;;;5054238;28;20480;-72
2023/05/28 05:58:13;;;;;;;5.77;4.10;;;18.40;64.40;;;;;;5054224;28;20448;-71
2023/05/28 06:00:41;;;;;;;7.07;4.60;;;18.50;64.10;;;;;;5053591;28;20456;-72
2023/05/28 06:03:08;;;;;;;5.57;3.97;;;18.60;64.10;;;;;;5054112;28;20460;-71
2023/05/28 06:05:35;;;;;;;6.80;4.20;;;18.60;64.30;;;;;;5053788;28;20483;-72
2023/05/28 06:08:03;;;;;;;7.13;3.40;;;18.70;64.30;;;;;;5053360;28;20456;-71
2023/05/28 06:10:30;;;;;;;4.33;3.60;;;18.80;64.20;;;;;;5053616;28;20255;-72
2023/05/28 06:13:00;;;;;;;9.17;3.80;;;18.90;64.10;;;;;;5053329;28;20472;-72
2023/05/28 06:15:31;;;;;;;6.60;3.93;;;19.00;63.90;;;;;;5053597;28;20525;-71
2023/05/28 06:18:00;;;;;;;6.70;4.50;;;19.00;63.70;;;;;;5053793;28;20448;-72
2023/05/28 06:20:27;;;;;;;6.63;3.73;;;19.10;63.40;;;;;;5053442;28;20444;-71
2023/05/28 06:22:54;;;;;;;7.73;4.33;;;19.20;63.10;;;;;;5053709;28;20202;-73
2023/05/28 06:25:21;;;;;;;4.60;3.63;;;19.20;62.50;;;;;;5053157;28;20476;-72
2023/05/28 06:27:48;;;;;;;5.70;3.90;;;19.30;62.10;;;;;;5053274;28;20206;-71
2023/05/28 06:30:16;;;;;;;6.10;3.80;;;19.40;61.50;;;;;;5053210;28;20218;-72
2023/05/28 06:32:43;;;;;;;5.50;3.63;;;19.40;61.50;;;;;;5053425;28;20571;-72
2023/05/28 06:35:11;;;;;;;5.57;3.43;;;19.50;61.00;;;;;;5053077;28;20231;-71
2023/05/28 06:37:38;;;;;;;5.57;3.77;;;19.60;60.70;;;;;;5053104;28;20236;-71
2023/05/28 06:40:06;;;;;;;6.03;3.97;;;19.70;60.80;;;;;;5053317;28;20202;-71
2023/05/28 06:42:33;;;;;;;7.80;4.10;;;19.70;60.60;;;;;;5053393;28;20209;-71
2023/05/28 06:45:00;;;;;;;5.93;3.90;;;19.70;60.40;;;;;;5053250;28;20490;-71
2023/05/28 06:47:27;;;;;;;7.13;3.33;;;19.80;59.90;;;;;;5052924;28;20305;-71
2023/05/28 06:49:55;;;;;;;6.67;3.80;;;19.90;59.70;;;;;;5053010;28;20210;-71
2023/05/28 06:52:23;;;;;;;5.43;3.53;;;20.00;59.80;;;;;;5052996;28;20267;-71
2023/05/28 06:54:50;;;;;;;7.03;4.20;;;20.10;59.50;;;;;;5054237;28;20226;-71
2023/05/28 06:57:17;;;;;;;6.33;3.90;;;20.10;59.40;;;;;;5055459;28;20241;-72
2023/05/28 06:59:44;;;;;;;4.63;3.47;;;20.20;59.30;;;;;;5055369;28;20206;-72
2023/05/28 07:02:11;;;;;;;4.33;3.57;;;20.30;58.70;;;;;;5052799;28;20206;-72
2023/05/28 07:04:38;;;;;;;6.43;3.97;;;20.40;59.10;;;;;;5054191;28;20225;-72
2023/05/28 07:07:05;;;;;;;6.37;3.70;;;20.50;58.70;;;;;;5053788;28;20202;-72
2023/05/28 07:09:34;;;;;;;4.57;3.37;;;20.60;58.40;;;;;;5052815;28;20264;-72
2023/05/28 07:12:01;;;;;;;6.83;3.77;;;20.70;58.30;;;;;;5052849;28;20220;-72
2023/05/28 07:14:28;;;;;;;7.77;4.13;;;20.80;58.00;;;;;;5053769;28;20209;-72
2023/05/28 07:16:55;;;;;;;5.57;4.07;;;20.80;57.60;;;;;;5052296;28;20313;-72
2023/05/28 07:19:21;;;;;;;5.13;3.50;;;20.90;57.60;;;;;;5052447;28;20237;-71
2023/05/28 07:21:48;;;;;;;6.57;3.73;;;21.00;57.60;;;;;;5052255;28;20293;-72
2023/05/28 07:24:15;;;;;;;7.17;4.10;;;21.10;57.90;;;;;;5051769;28;20201;-72
2023/05/28 07:26:44;;;;;;;6.10;3.73;;;21.20;58.10;;;;;;5052618;28;20605;-72
2023/05/28 07:29:13;;;;;;;7.17;3.73;;;21.20;57.40;;;;;;5051921;28;20218;-71
2023/05/28 07:31:40;;;;;;;5.53;3.90;;;21.30;57.20;;;;;;5052267;28;20236;-72
2023/05/28 07:34:06;;;;;;;7.43;4.10;;;21.40;57.10;;;;;;5051226;28;20210;-72
2023/05/28 07:36:33;;;;;;;7.53;4.30;;;21.50;56.90;;;;;;5031954;28;20242;-71
2023/05/28 07:39:01;;;;;;;8.40;4.60;;;21.60;56.80;;;;;;5032153;28;20228;-72
2023/05/28 07:41:27;;;;;;;5.73;4.03;;;21.80;56.50;;;;;;5031972;28;20291;-71
2023/05/28 07:43:56;;;;;;;6.57;4.30;;;21.80;56.40;;;;;;5032030;28;20195;-73
2023/05/28 07:46:23;;;;;;;5.87;3.80;;;21.90;55.70;;;;;;5014369;28;20206;-72
2023/05/28 07:48:50;;;;;;;6.50;3.97;;;22.00;56.00;;;;;;5031189;28;20317;-71
2023/05/28 07:51:18;;;;;;;6.23;4.07;;;22.10;55.40;;;;;;5031779;28;20211;-72
2023/05/28 07:53:45;;;;;;;5.67;3.67;;;22.10;55.60;;;;;;4996378;28;20237;-71
2023/05/28 07:56:12;;;;;;;5.37;3.53;;;22.20;55.60;;;;;;5031611;28;20585;-71
2023/05/28 07:58:43;;;;;;;6.13;4.07;;;22.30;55.20;;;;;;5031655;28;20217;-71
2023/05/28 08:01:11;;;;;;;7.13;3.80;;;22.50;55.70;;;;;;5031010;28;20325;-71
2023/05/28 08:03:38;;;;;;;5.03;3.73;;;22.50;54.80;;;;;;5031173;28;20216;-71
2023/05/28 08:06:06;;;;;;;9.33;4.17;;;22.60;54.80;;;;;;5031404;28;20292;-72
2023/05/28 08:08:33;;;;;;;8.53;4.20;;;22.70;54.50;;;;;;5013868;28;20690;-72
2023/05/28 08:10:59;;;;;;;5.83;4.10;;;22.80;54.70;;;;;;5031193;28;20206;-72
2023/05/28 08:13:26;;;;;;;5.47;4.17;;;22.90;54.80;;;;;;5031317;28;20554;-71
2023/05/28 08:15:53;;;;;;;6.03;3.80;;;23.00;54.20;;;;;;5031316;28;20234;-71
2023/05/28 08:18:21;;;;;;;6.20;4.17;;;23.10;54.60;;;;;;5031319;28;20221;-71
2023/05/28 08:20:48;;;;;;;5.00;3.67;;;23.20;54.00;;;;;;5031124;28;20237;-72
2023/05/28 08:23:15;;;;;;;6.50;3.77;;;23.20;53.50;;;;;;5031416;28;20202;-72
2023/05/28 08:25:42;;;;;;;5.10;3.87;;;23.30;53.60;;;;;;5031424;28;20674;-72
2023/05/28 08:28:09;;;;;;;6.43;3.90;;;23.40;53.50;;;;;;5031284;28;20209;-72
2023/05/28 08:30:36;;;;;;;7.07;4.23;;;23.50;53.30;;;;;;5030847;28;20214;-71
2023/05/28 08:33:03;;;;;;;6.40;4.00;;;23.50;53.40;;;;;;5030841;28;20231;-72
2023/05/28 08:35:31;;;;;;;6.93;3.53;;;23.60;53.30;;;;;;5043598;28;20222;-71
2023/05/28 08:37:58;;;;;;;6.87;3.87;;;23.70;52.90;;;;;;5051093;28;20220;-71
2023/05/28 08:40:26;;;;;;;5.73;3.93;;;23.80;53.00;;;;;;5051056;28;20208;-71
2023/05/28 08:42:53;;;;;;;6.10;4.20;;;23.90;52.50;;;;;;5051162;28;20300;-71
2023/05/28 08:45:20;;;;;;;7.03;4.20;;;24.00;52.20;;;;;;5050903;28;20206;-71
2023/05/28 08:47:51;;;;;;;5.97;3.77;;;24.00;51.60;;;;;;5051031;28;20214;-72
2023/05/28 08:50:19;;;;;;;6.87;3.93;;;24.10;50.90;;;;;;5050967;28;20743;-72
2023/05/28 08:52:48;;;;;;;5.97;3.60;;;24.10;51.00;;;;;;5050851;28;20229;-72
2023/05/28 08:55:16;;;;;;;6.60;4.07;;;24.20;51.10;;;;;;5043062;28;20212;-71
2023/05/28 08:57:46;;;;;;;7.77;4.00;;;24.30;52.10;;;;;;5051309;28;20244;-71
2023/05/28 09:00:14;;;;;;;5.13;3.77;;;24.50;53.10;;;;;;5050611;28;20654;-72
2023/05/28 09:02:41;;;;;;;6.63;4.13;;;24.60;52.00;;;;;;5050475;28;20217;-72
2023/05/28 09:05:08;;;;;;;5.07;4.27;;;24.70;51.50;;;;;;5050891;28;20244;-73
2023/05/28 09:07:35;;;;;;;6.23;3.90;;;24.80;51.60;;;;;;5051142;28;20570;-72
2023/05/28 09:10:04;;;;;;;6.80;3.70;;;24.90;51.90;;;;;;5050522;28;20226;-71
2023/05/28 09:12:31;;;;;;;6.50;4.10;;;24.90;51.30;;;;;;5050651;28;20330;-72
2023/05/28 09:14:58;;;;;;;7.03;4.70;;;25.00;50.70;;;;;;5050856;28;20206;-71
2023/05/28 09:17:35;;;;;;;8.83;4.20;;;25.10;51.20;;;;;;5050372;28;20715;-72
2023/05/28 09:20:04;;;;;;;6.23;4.33;;;25.30;51.50;;;;;;5050910;28;20209;-72
2023/05/28 09:22:31;;;;;;;5.80;3.90;;;25.30;51.00;;;;;;5050621;28;20212;-72
2023/05/28 09:25:00;;;;;;;6.97;4.43;;;25.40;50.20;;;;;;5050526;28;20233;-72
2023/05/28 09:27:28;;;;;;;5.30;3.70;;;25.50;50.30;;;;;;5050685;28;20212;-70
2023/05/28 09:29:55;;;;;;;5.27;3.80;;;25.60;50.30;;;;;;5050481;28;20216;-72
2023/05/28 09:32:22;;;;;;;4.80;3.70;;;25.70;50.40;;;;;;5050410;28;20215;-72
2023/05/28 09:34:50;;;;;;;4.63;3.70;;;25.80;50.60;;;;;;5043706;28;20199;-72
2023/05/28 09:37:18;;;;;;;6.80;3.97;;;25.90;49.60;;;;;;5030502;28;20234;-72
2023/05/28 09:39:45;;;;;;;7.57;3.80;;;25.90;49.60;;;;;;5030741;28;20214;-72
2023/05/28 09:42:13;;;;;;;8.47;3.90;;;26.00;49.90;;;;;;5030500;28;20213;-72
2023/05/28 09:44:43;;;;;;;9.70;4.13;;;26.10;49.70;;;;;;5030437;28;20234;-71
2023/05/28 09:47:16;;;;;;;6.50;3.87;;;26.20;49.60;;;;;;5032823;28;20206;-70
2023/05/28 09:49:45;;;;;;;7.40;4.20;;;26.30;49.40;;;;;;5034418;28;20233;-72
2023/05/28 09:52:18;;;;;;;5.30;3.87;;;26.40;49.20;;;;;;5034196;28;20212;-70
2023/05/28 09:54:50;;;;;;;5.60;3.60;;;26.50;49.00;;;;;;5034040;28;20924;-73
2023/05/28 09:57:19;;;;;;;6.83;4.10;;;26.60;49.20;;;;;;5034092;28;20247;-72
2023/05/28 09:59:49;;;;;;;6.63;3.93;;;26.70;48.20;;;;;;5033771;28;20212;-72
2023/05/28 10:02:28;;;;;;;6.57;4.03;;;26.70;48.10;;;;;;5033971;28;20210;-72
2023/05/28 10:04:57;;;;;;;5.67;4.00;;;26.80;48.80;;;;;;5033810;28;20229;-72
2023/05/28 10:07:26;;;;;;;5.77;4.40;;;26.90;48.10;;;;;;5033818;28;20208;-72
2023/05/28 10:09:56;;;;;;;6.70;3.67;;;27.00;47.60;;;;;;5033940;28;20244;-72
2023/05/28 10:12:26;;;;;;;5.73;4.07;;;27.10;47.30;;;;;;5033955;28;20205;-71
2023/05/28 10:14:55;;;;;;;5.43;3.83;;;27.20;47.50;;;;;;5033585;28;20214;-72
2023/05/28 10:17:22;;;;;;;6.50;3.83;;;27.30;46.80;;;;;;5033738;28;20224;-72
2023/05/28 10:19:49;;;;;;;5.53;3.63;;;27.40;47.70;;;;;;5033825;28;20298;-71
2023/05/28 10:22:17;;;;;;;7.67;3.47;;;27.50;46.90;;;;;;5033346;28;20236;-72
2023/05/28 10:24:45;;;;;;;5.63;3.73;;;27.50;46.20;;;;;;5033628;28;20295;-71
2023/05/28 10:27:14;;;;;;;8.13;4.00;;;27.50;46.10;;;;;;5033574;28;20292;-71
2023/05/28 10:29:42;;;;;;;5.47;3.70;;;27.60;47.00;;;;;;5033122;28;20220;-72
2023/05/28 10:32:14;;;;;;;7.13;3.80;;;27.80;46.20;;;;;;5033192;28;20214;-71
2023/05/28 10:34:41;;;;;;;5.50;3.50;;;27.90;45.10;;;;;;5039165;28;20223;-71
2023/05/28 10:37:09;;;;;;;6.83;3.77;;;27.90;44.80;;;;;;5053263;28;20228;-71
2023/05/28 10:39:43;;;;;;;6.20;3.70;;;28.00;45.30;;;;;;5053421;28;20255;-71
2023/05/28 10:42:14;;;;;;;7.80;3.87;;;28.10;45.20;;;;;;5053315;28;20212;-70
2023/05/28 10:44:51;;;;;;;10.20;4.17;;;28.20;43.90;;;;;;5052809;28;20727;-71
2023/05/28 10:47:19;;;;;;;5.83;3.93;;;28.20;43.30;;;;;;5053447;28;20228;-71
2023/05/28 10:50:00;;;;;;;5.77;4.00;;;28.30;44.50;;;;;;5052656;28;20239;-71
2023/05/28 10:52:27;;;;;;;7.27;3.83;;;28.40;43.50;;;;;;5052812;28;20216;-72
2023/05/28 10:54:54;;;;;;;5.23;3.47;;;28.50;42.20;;;;;;5052514;28;20232;-72
2023/05/28 10:57:22;;;;;;;7.50;3.97;;;28.50;43.20;;;;;;5051979;28;20681;-71
2023/05/28 10:59:51;;;;;;;7.17;4.10;;;28.60;43.30;;;;;;5052415;28;20693;-72
2023/05/28 11:02:22;;;;;;;6.47;4.00;;;28.70;42.60;;;;;;5052803;28;20567;-72
2023/05/28 11:04:52;;;;;;;6.33;3.63;;;28.80;42.40;;;;;;5052658;28;20215;-72
2023/05/28 11:07:20;;;;;;;8.50;4.00;;;28.80;41.40;;;;;;5051751;28;20229;-72
2023/05/28 11:09:49;;;;;;;8.83;4.03;;;28.90;41.60;;;;;;5051759;28;20223;-71
2023/05/28 11:12:16;;;;;;;5.40;3.93;;;29.00;41.90;;;;;;5051166;28;20220;-72
2023/05/28 11:14:43;;;;;;;7.33;3.90;;;29.00;40.60;;;;;;5051724;28;20657;-72
2023/05/28 11:17:11;;;;;;;9.37;4.00;;;29.00;41.10;;;;;;5052194;28;20231;-70
2023/05/28 11:19:44;;;;;;;7.57;3.90;;;29.00;40.80;;;;;;5051556;28;20634;-72
2023/05/28 11:22:11;;;;;;;7.77;3.93;;;29.10;40.40;;;;;;5051268;28;20205;-72
2023/05/28 11:24:59;;;;;;;6.80;4.10;;;29.10;39.80;;;;;;5051896;28;20209;-71
2023/05/28 11:27:27;;;;;;;6.70;3.87;;;29.10;39.70;;;;;;5052405;28;20211;-73
2023/05/28 11:29:56;;;;;;;5.87;3.50;;;29.20;40.40;;;;;;5051626;28;20427;-72
2023/05/28 11:32:23;;;;;;;4.83;3.77;;;29.30;40.00;;;;;;5051856;28;20724;-72
2023/05/28 11:34:52;;;;;;;5.43;4.07;;;29.30;38.70;;;;;;5044591;28;20309;-71
2023/05/28 11:37:26;;;;;;;6.80;3.70;;;29.30;39.70;;;;;;5032020;28;20640;-71
2023/05/28 11:39:54;;;;;;;5.70;3.60;;;29.30;39.30;;;;;;5031959;28;20233;-71
2023/05/28 11:42:22;;;;;;;7.40;3.57;;;29.30;40.00;;;;;;5032014;28;20213;-71
2023/05/28 11:44:50;;;;;;;6.43;3.80;;;29.40;39.90;;;;;;5031908;28;20230;-71
2023/05/28 11:47:18;;;;;;;6.40;3.70;;;29.50;39.60;;;;;;5032342;28;20209;-72
2023/05/28 11:49:46;;;;;;;7.13;4.23;;;29.60;39.40;;;;;;5031786;28;20228;-72
2023/05/28 11:52:15;;;;;;;5.40;3.53;;;29.60;39.60;;;;;;5032005;28;20234;-71
2023/05/28 11:54:43;;;;;;;5.37;3.77;;;29.60;40.10;;;;;;5031887;28;20684;-71
2023/05/28 11:57:11;;;;;;;6.30;3.67;;;29.80;39.70;;;;;;5031380;28;20306;-70
2023/05/28 11:59:38;;;;;;;6.47;3.73;;;29.80;39.20;;;;;;5014470;28;20682;-70
2023/05/28 12:02:12;;;;;;;5.10;3.70;;;29.90;39.50;;;;;;5033808;28;20283;-72
2023/05/28 12:04:39;;;;;;;7.23;3.37;;;30.00;38.40;;;;;;5035235;28;20236;-72
2023/05/28 12:07:06;;;;;;;6.93;3.67;;;30.00;38.70;;;;;;5030909;28;20203;-71
2023/05/28 12:09:35;;;;;;;6.47;3.93;;;30.00;38.10;;;;;;5030602;28;20207;-70
2023/05/28 12:12:04;;;;;;;5.93;3.83;;;30.10;38.80;;;;;;5030566;28;20210;-71
2023/05/28 12:14:32;;;;;;;6.30;3.87;;;30.10;39.90;;;;;;5030505;28;20206;-72
2023/05/28 12:17:10;;;;;;;4.33;3.63;;;30.20;39.00;;;;;;5031249;28;20257;-70
2023/05/28 12:19:37;;;;;;;5.37;3.70;;;30.30;39.00;;;;;;5031432;28;20560;-72
2023/05/28 12:22:14;;;;;;;6.17;4.17;;;30.40;39.20;;;;;;5031461;28;20206;-72
2023/05/28 12:24:48;;;;;;;6.33;3.63;;;30.40;37.70;;;;;;5036571;28;20284;-72
2023/05/28 12:27:15;;;;;;;6.67;3.43;;;30.40;35.50;;;;;;5051032;28;20209;-72
2023/05/28 12:29:42;;;;;;;6.83;3.87;;;30.20;35.80;;;;;;5051423;28;20320;-72
2023/05/28 12:32:09;;;;;;;4.93;3.83;;;30.10;36.30;;;;;;5051337;28;20223;-71
2023/05/28 12:34:36;;;;;;;7.40;3.50;;;30.20;38.20;;;;;;5050928;28;20205;-71
2023/05/28 12:37:03;;;;;;;6.80;3.73;;;30.30;36.70;;;;;;5050729;28;20320;-71
2023/05/28 12:39:30;;;;;;;6.57;3.90;;;30.30;35.90;;;;;;5051027;28;20266;-71
2023/05/28 12:41:58;;;;;;;5.33;3.70;;;30.50;36.90;;;;;;5051116;28;20301;-71
2023/05/28 12:44:25;;;;;;;6.23;3.50;;;30.50;36.80;;;;;;5051238;28;20221;-72
2023/05/28 12:46:52;;;;;;;4.93;3.37;;;30.70;35.30;;;;;;5050856;28;20653;-71
2023/05/28 12:49:19;;;;;;;5.37;3.37;;;30.70;36.30;;;;;;5051115;28;20226;-71